»·PEaware :: BLADE31 KSPS-KSPS

BLADE31 :: KSPS-KSPS

FLIGHT INFORMATION

Flight Status: Arrived
Operator: Unknown
More flights by this operator :: More flights under this callsign
Pilot: 80 FTW ENJJPT (22981)
Aircraft: BEECH AIRCRAFT T-6A TEXAN
(TEX2)
More flights by this aircraft type
Origin: KSPS Sheppard AFB/Wichita Falls Mu
United States
Destination: KSPS Sheppard AFB/Wichita Falls Mu
United States
More flights between these airports :: More routes between these airports
Route: +
File this flight plan on PilotEdge
Remarks:
Altitude:
(Current/Filed)
0ft
Speed:
(Current/Filed)
0kts
Departed: 29-Jun-20 08:48 AM
Arrived: 29-Jun-20 09:37 AM
Distance/Time
Traveled:
0nm/0:48
Distance/Time
To Go:
Arrived

Flight Plot

Page will automatically refresh every two minutes.

Flight plan parsing failed; only flown route is shown


Map Options




Map Legend


Flown Route
Filed Route
Departure Airport
Arrival Airport
Navaid (VOR, NDB)
Fix

Horizontal Profiles

Position Reports

Time Latitude Longitude Heading Altitude Ground
Speed
29-Jun-20 08:40 34.000747 -98.503029 338 1022ft 12kts
29-Jun-20 08:41 34.003386 -98.502534 27 1022ft 13kts
29-Jun-20 08:42 34.006513 -98.502165 15 1022ft 11kts
29-Jun-20 08:43 34.009316 -98.498619 67 1022ft 16kts
29-Jun-20 08:44 34.010912 -98.494488 100 1022ft 6kts
29-Jun-20 08:45 34.010900 -98.494441 111 1022ft 0kts
29-Jun-20 08:46 34.010872 -98.493872 67 1022ft 3kts
29-Jun-20 08:47 33.990787 -98.483352 158 1561ft 188kts
29-Jun-20 08:48 33.999192 -98.437950 343 2012ft 208kts
29-Jun-20 08:49 34.053845 -98.466009 333 2085ft 213kts
29-Jun-20 08:50 34.042271 -98.508076 160 1985ft 204kts
29-Jun-20 08:51 34.001626 -98.474911 25 2033ft 169kts
29-Jun-20 08:52 34.022508 -98.497246 199 1614ft 135kts
29-Jun-20 08:53 33.982721 -98.479398 157 1540ft 208kts
29-Jun-20 08:54 34.010353 -98.447939 335 2065ft 208kts
29-Jun-20 08:55 34.062425 -98.476388 334 2009ft 205kts
29-Jun-20 08:56 34.042036 -98.508027 159 2132ft 193kts
29-Jun-20 08:57 34.001632 -98.475208 26 2030ft 171kts
29-Jun-20 08:58 34.021101 -98.497674 186 1389ft 140kts
29-Jun-20 08:59 33.988399 -98.479960 117 1884ft 163kts
29-Jun-20 09:00 34.022275 -98.485319 324 2033ft 127kts
29-Jun-20 09:01 34.000353 -98.488066 157 1177ft 153kts
29-Jun-20 09:02 33.963379 -98.448175 88 3624ft 191kts
29-Jun-20 09:03 33.980441 -98.408893 330 6289ft 194kts
29-Jun-20 09:04 33.985873 -98.412705 324 7089ft 173kts
29-Jun-20 09:05 34.028843 -98.442267 329 10924ft 199kts
29-Jun-20 09:06 34.078470 -98.475068 329 14253ft 235kts
29-Jun-20 09:07 34.136596 -98.515509 329 14032ft 240kts
29-Jun-20 09:08 34.196443 -98.547316 3 14126ft 239kts
29-Jun-20 09:09 34.217135 -98.544551 7 14117ft 240kts
29-Jun-20 09:10 34.278621 -98.530827 9 14038ft 288kts
29-Jun-20 09:11 34.359465 -98.513705 8 13918ft 301kts
29-Jun-20 09:12 34.434791 -98.494389 41 12786ft 282kts
29-Jun-20 09:13 34.451413 -98.489655 5 13019ft 155kts
29-Jun-20 09:14 34.511539 -98.488957 357 11351ft 277kts
29-Jun-20 09:15 34.555637 -98.489300 358 9959ft 301kts
29-Jun-20 09:16 34.560932 -98.487801 3 12442ft 262kts
29-Jun-20 09:17 34.525571 -98.486638 173 13184ft 151kts
29-Jun-20 09:18 34.488365 -98.480154 180 10196ft 245kts
29-Jun-20 09:19 34.428920 -98.478206 182 11094ft 251kts
29-Jun-20 09:20 34.447176 -98.488226 84 10708ft 253kts
29-Jun-20 09:21 34.463669 -98.432915 351 10216ft 252kts
29-Jun-20 09:22 34.491753 -98.410819 88 10362ft 242kts
29-Jun-20 09:23 34.479698 -98.429179 268 9763ft 255kts
29-Jun-20 09:25 34.465633 -98.488100 266 9601ft 252kts
29-Jun-20 09:26 34.456260 -98.506956 212 8964ft 231kts
29-Jun-20 09:27 34.397212 -98.488241 155 5624ft 271kts
29-Jun-20 09:28 34.348579 -98.462836 164 3822ft 223kts
29-Jun-20 09:29 34.292120 -98.439904 169 2606ft 203kts
29-Jun-20 09:30 34.248210 -98.448826 195 2024ft 223kts
29-Jun-20 09:31 34.220825 -98.464813 219 2518ft 230kts
29-Jun-20 09:32 34.167697 -98.505046 197 2063ft 206kts
29-Jun-20 09:33 34.115261 -98.518678 192 1528ft 175kts
29-Jun-20 09:34 34.072821 -98.523698 156 1546ft 147kts
29-Jun-20 09:35 34.040592 -98.507514 156 1630ft 119kts
29-Jun-20 09:36 34.011838 -98.493674 157 1046ft 98kts
29-Jun-20 09:37 33.995884 -98.486368 225 1022ft 20kts
29-Jun-20 09:38 33.989800 -98.487451 178 1022ft 23kts
29-Jun-20 09:39 33.989011 -98.488116 244 1022ft 0kts
29-Jun-20 09:40 33.989011 -98.488116 244 1022ft 0kts
29-Jun-20 09:41 33.989011 -98.488116 244 1022ft 0kts
29-Jun-20 09:42 33.989011 -98.488116 244 1022ft 0kts
29-Jun-20 09:42 33.989011 -98.488116 244 1022ft 0kts
29-Jun-20 09:44 33.989011 -98.488116 244 1022ft 0kts
29-Jun-20 09:44 33.989011 -98.488116 244 1022ft 0kts

Navigation Log

Ident Type
Flight plan parsing failed, navigation log unavailable